createdAt,value
2023-05-10T00:01:58.460Z,61.57
2023-05-10T00:05:00.528Z,61.51
2023-05-10T00:08:02.602Z,61.62
2023-05-10T00:11:04.732Z,61.54
2023-05-10T00:14:06.832Z,61.53
2023-05-10T00:17:08.873Z,61.57
2023-05-10T00:20:11.520Z,61.53
2023-05-10T00:23:13.964Z,61.51
2023-05-10T00:26:17.519Z,61.57
2023-05-10T00:29:20.456Z,61.55
2023-05-10T00:32:22.615Z,61.60
2023-05-10T00:35:25.025Z,61.50
2023-05-10T00:38:27.154Z,61.50
2023-05-10T00:41:29.199Z,61.53
2023-05-10T00:44:31.902Z,61.46
2023-05-10T00:47:34.272Z,61.47
2023-05-10T00:50:36.629Z,61.50
2023-05-10T00:53:38.813Z,61.50
2023-05-10T00:56:41.444Z,61.42
2023-05-10T00:59:43.722Z,61.50
2023-05-10T01:02:47.234Z,61.45
2023-05-10T01:05:49.670Z,61.47
2023-05-10T01:08:51.837Z,61.53
2023-05-10T01:11:55.141Z,61.47
2023-05-10T01:14:57.486Z,61.45
2023-05-10T01:18:00.134Z,61.50
2023-05-10T01:21:52.921Z,61.40
2023-05-10T01:25:09.715Z,61.38
2023-05-10T01:28:30.704Z,61.33
2023-05-10T01:32:11.301Z,61.47
2023-05-10T01:35:43.650Z,61.49
2023-05-10T01:38:51.543Z,61.38
2023-05-10T01:42:06.996Z,61.49
2023-05-10T01:45:40.233Z,61.39
2023-05-10T01:48:48.867Z,61.31
2023-05-10T01:51:54.668Z,61.34
2023-05-10T01:55:14.138Z,61.39
2023-05-10T01:58:23.714Z,61.38
2023-05-10T02:01:27.605Z,61.44
2023-05-10T02:04:30.206Z,61.35
2023-05-10T02:07:35.228Z,61.37
2023-05-10T02:10:37.867Z,61.40
2023-05-10T02:13:40.978Z,61.39
2023-05-10T02:16:43.939Z,61.37
2023-05-10T02:19:47.402Z,61.25
2023-05-10T02:22:52.411Z,61.40
2023-05-10T02:25:55.950Z,61.41
2023-05-10T02:28:59.218Z,61.37
2023-05-10T02:32:02.503Z,61.35
2023-05-10T02:35:05.663Z,61.30
2023-05-10T02:38:09.582Z,61.23
2023-05-10T02:41:13.189Z,61.42
2023-05-10T02:44:19.373Z,61.29
2023-05-10T02:47:22.056Z,61.31
2023-05-10T02:50:26.592Z,61.35
2023-05-10T02:53:34.067Z,61.36
2023-05-10T02:56:41.553Z,61.37
2023-05-10T02:59:44.032Z,61.38
2023-05-10T03:02:46.039Z,61.34
2023-05-10T03:05:48.044Z,61.22
2023-05-10T03:08:50.228Z,61.37
2023-05-10T03:12:29.692Z,61.32
2023-05-10T03:15:58.936Z,61.22
2023-05-10T03:19:21.232Z,61.31
2023-05-10T03:22:29.558Z,61.35
2023-05-10T03:25:33.105Z,61.32
2023-05-10T03:28:36.964Z,61.28
2023-05-10T03:31:40.135Z,61.26
2023-05-10T03:34:45.393Z,61.31
2023-05-10T03:37:48.377Z,61.33
2023-05-10T03:40:50.494Z,61.26
2023-05-10T03:43:52.801Z,61.31
2023-05-10T03:46:54.875Z,61.29
2023-05-10T03:49:56.933Z,61.25
2023-05-10T03:52:59.020Z,61.31
2023-05-10T03:56:01.283Z,61.25
2023-05-10T03:59:08.233Z,61.28
2023-05-10T04:02:10.377Z,61.28
2023-05-10T04:05:12.727Z,61.34
2023-05-10T04:08:17.241Z,61.34
2023-05-10T04:11:19.282Z,61.31
2023-05-10T04:14:21.616Z,61.38
2023-05-10T04:17:23.662Z,61.27
2023-05-10T04:20:26.091Z,61.21
2023-05-10T04:23:28.680Z,61.25
2023-05-10T04:26:31.001Z,61.28
2023-05-10T04:29:33.005Z,61.28
2023-05-10T04:32:35.024Z,61.28
2023-05-10T04:35:37.160Z,61.18
2023-05-10T04:38:39.308Z,61.26
2023-05-10T04:41:41.337Z,61.25
2023-05-10T04:44:43.518Z,61.24
2023-05-10T04:47:45.636Z,61.21
2023-05-10T04:50:47.655Z,61.11
2023-05-10T04:54:01.703Z,61.36
2023-05-10T04:57:07.090Z,61.32
2023-05-10T05:00:09.651Z,61.33
2023-05-10T05:03:11.838Z,61.56
2023-05-10T05:06:13.881Z,61.71
2023-05-10T05:09:15.905Z,61.69
2023-05-10T05:12:17.884Z,61.81
2023-05-10T05:15:19.944Z,61.76
2023-05-10T05:18:21.988Z,61.92
2023-05-10T05:21:24.929Z,61.85
2023-05-10T05:24:26.968Z,61.86
2023-05-10T05:27:29.131Z,61.94
2023-05-10T05:30:31.206Z,61.87
2023-05-10T05:33:33.189Z,61.79
2023-05-10T05:36:39.377Z,61.86
2023-05-10T05:39:41.741Z,61.72
2023-05-10T05:42:43.760Z,61.63
2023-05-10T05:45:45.895Z,61.63
2023-05-10T05:48:47.980Z,61.73
2023-05-10T05:51:51.304Z,61.80
2023-05-10T05:54:53.307Z,61.76
2023-05-10T05:57:55.482Z,61.73
2023-05-10T06:00:58.281Z,61.70
2023-05-10T06:04:00.427Z,61.82
2023-05-10T06:07:02.526Z,61.73
2023-05-10T06:10:04.856Z,61.73
2023-05-10T06:13:07.007Z,61.72
2023-05-10T06:16:09.074Z,61.56
2023-05-10T06:19:11.307Z,61.61
2023-05-10T06:22:13.296Z,61.63
2023-05-10T06:25:16.015Z,61.68
2023-05-10T06:28:18.270Z,61.60
2023-05-10T06:31:20.541Z,61.85
2023-05-10T06:34:22.565Z,63.37
2023-05-10T06:37:24.859Z,63.15
2023-05-10T06:40:26.967Z,63.39
2023-05-10T06:43:29.754Z,63.83
2023-05-10T06:46:32.010Z,63.89
2023-05-10T06:49:34.040Z,63.76
2023-05-10T06:52:36.281Z,63.89
2023-05-10T06:55:38.385Z,63.91
2023-05-10T06:58:40.385Z,64.25
2023-05-10T07:01:42.469Z,64.22
2023-05-10T07:04:44.690Z,64.43
2023-05-10T07:07:47.029Z,64.43
2023-05-10T07:10:49.126Z,64.15
2023-05-10T07:13:51.213Z,64.28
2023-05-10T07:16:53.219Z,64.05
2023-05-10T07:19:55.316Z,63.84
2023-05-10T07:22:57.394Z,64.01
2023-05-10T07:26:00.276Z,63.88
2023-05-10T07:29:02.374Z,64.28
2023-05-10T07:32:04.613Z,64.70
2023-05-10T07:35:07.701Z,63.83
2023-05-10T07:38:11.849Z,63.17
2023-05-10T07:41:13.927Z,63.29
2023-05-10T07:44:16.091Z,63.09
2023-05-10T07:47:18.165Z,62.38
2023-05-10T07:50:20.357Z,62.28
2023-05-10T07:53:22.454Z,61.73
2023-05-10T07:56:28.026Z,61.60
2023-05-10T07:59:30.063Z,62.47
2023-05-10T08:02:32.182Z,60.92
2023-05-10T08:05:35.694Z,61.02
2023-05-10T08:08:37.931Z,60.52
2023-05-10T08:11:40.043Z,60.47
2023-05-10T08:14:42.062Z,60.31
2023-05-10T08:17:44.184Z,60.42
2023-05-10T08:20:46.385Z,60.79
2023-05-10T08:23:48.412Z,60.73
2023-05-10T08:26:50.566Z,60.34
2023-05-10T08:29:52.590Z,60.61
2023-05-10T08:32:54.680Z,60.58
2023-05-10T08:35:56.848Z,60.54
2023-05-10T08:38:59.343Z,60.38
2023-05-10T08:42:04.904Z,60.60
2023-05-10T08:45:08.962Z,60.62
2023-05-10T08:48:11.911Z,60.86
2023-05-10T08:51:26.254Z,60.83
2023-05-10T08:54:31.235Z,60.31
2023-05-10T08:57:33.533Z,60.13
2023-05-10T09:00:36.183Z,60.53
2023-05-10T09:03:40.697Z,59.83
2023-05-10T09:06:42.862Z,59.83
2023-05-10T09:09:45.085Z,59.96
2023-05-10T09:12:47.463Z,59.84
2023-05-10T09:15:50.182Z,59.74
2023-05-10T09:18:52.210Z,59.73
2023-05-10T09:21:54.238Z,59.71
2023-05-10T09:25:15.727Z,60.36
2023-05-10T09:28:17.944Z,59.99
2023-05-10T09:31:20.103Z,60.55
2023-05-10T09:34:31.988Z,60.45
2023-05-10T09:37:34.052Z,60.37
2023-05-10T09:40:36.150Z,60.44
2023-05-10T09:43:41.505Z,60.46
2023-05-10T09:46:43.507Z,60.41
2023-05-10T09:49:49.926Z,60.31
2023-05-10T09:52:59.222Z,60.17
2023-05-10T09:56:01.262Z,59.86
2023-05-10T09:59:04.188Z,59.75
2023-05-10T10:02:06.654Z,59.66
2023-05-10T10:05:09.345Z,59.93
2023-05-10T10:08:14.287Z,60.57
2023-05-10T10:11:16.368Z,60.52
2023-05-10T10:14:21.108Z,60.44
2023-05-10T10:17:24.150Z,60.25
2023-05-10T10:20:27.026Z,60.18
2023-05-10T10:23:29.901Z,60.21
2023-05-10T10:26:33.741Z,60.87
2023-05-10T10:30:05.512Z,61.07
2023-05-10T10:33:37.272Z,60.73
2023-05-10T10:36:46.187Z,60.94
2023-05-10T10:39:50.570Z,60.92
2023-05-10T10:42:52.964Z,60.60
2023-05-10T10:46:14.480Z,60.79
2023-05-10T10:49:18.152Z,61.25
2023-05-10T10:52:38.019Z,60.94
2023-05-10T10:55:49.830Z,60.77
2023-05-10T10:58:52.718Z,60.51
2023-05-10T11:01:54.815Z,60.76
2023-05-10T11:04:56.944Z,60.49
2023-05-10T11:08:00.699Z,60.04
2023-05-10T11:11:04.461Z,59.75
2023-05-10T11:14:08.105Z,59.66
2023-05-10T11:17:27.888Z,57.93
2023-05-10T11:20:39.293Z,58.53
2023-05-10T11:23:43.869Z,59.32
2023-05-10T11:26:46.033Z,58.49
2023-05-10T11:29:52.024Z,58.51
2023-05-10T11:32:54.453Z,57.30
2023-05-10T11:35:56.542Z,56.98
2023-05-10T11:38:58.897Z,57.27
2023-05-10T11:42:01.405Z,56.83
2023-05-10T11:45:03.567Z,57.03
2023-05-10T11:48:06.070Z,57.13
2023-05-10T11:51:09.482Z,57.03
2023-05-10T11:54:12.452Z,55.43
2023-05-10T11:57:14.446Z,55.72
2023-05-10T12:00:17.086Z,56.25
2023-05-10T12:03:19.629Z,56.31
2023-05-10T12:06:22.517Z,55.88
2023-05-10T12:12:43.980Z,56.50
2023-05-10T12:15:46.123Z,56.61
2023-05-10T12:18:52.851Z,56.71
2023-05-10T12:21:54.965Z,56.80
2023-05-10T12:24:59.419Z,56.89
2023-05-10T12:28:04.936Z,56.78
2023-05-10T12:31:07.528Z,56.48
2023-05-10T12:34:09.601Z,56.27
2023-05-10T12:37:11.740Z,55.58
2023-05-10T12:40:13.777Z,56.29
2023-05-10T12:43:15.822Z,56.12
2023-05-10T12:46:18.677Z,56.45
2023-05-10T12:49:20.811Z,56.51
2023-05-10T12:52:22.899Z,56.70
2023-05-10T12:55:24.985Z,57.12
2023-05-10T12:58:35.722Z,56.86
2023-05-10T13:01:38.496Z,56.91
2023-05-10T13:04:40.811Z,57.16
2023-05-10T13:07:44.723Z,57.25
2023-05-10T13:10:46.906Z,57.35
2023-05-10T13:13:48.957Z,57.39
2023-05-10T13:16:51.022Z,57.25
2023-05-10T13:19:53.342Z,57.21
2023-05-10T13:22:55.484Z,56.91
2023-05-10T13:25:57.505Z,56.94
2023-05-10T13:29:00.950Z,57.03
2023-05-10T13:32:03.084Z,57.03
2023-05-10T13:35:05.630Z,57.14
2023-05-10T13:38:09.011Z,57.20
2023-05-10T13:41:11.510Z,57.09
2023-05-10T13:44:15.026Z,56.90
2023-05-10T13:47:17.399Z,56.68
2023-05-10T13:50:19.675Z,56.56
2023-05-10T13:53:22.046Z,56.29
2023-05-10T13:56:24.117Z,56.40
2023-05-10T13:59:26.149Z,56.68
2023-05-10T14:02:28.538Z,56.95
2023-05-10T14:05:30.781Z,57.09
2023-05-10T14:08:32.802Z,57.14
2023-05-10T14:11:34.879Z,56.94
2023-05-10T14:14:37.163Z,56.88
2023-05-10T14:17:39.239Z,56.77
2023-05-10T14:20:41.419Z,56.48
2023-05-10T14:23:43.428Z,56.76
2023-05-10T14:26:45.502Z,56.85
2023-05-10T14:29:48.646Z,56.72
2023-05-10T14:32:50.878Z,56.43
2023-05-10T14:35:53.131Z,56.42
2023-05-10T14:38:55.186Z,56.32
2023-05-10T14:41:57.368Z,56.23
2023-05-10T14:44:59.526Z,56.10
2023-05-10T14:48:02.051Z,56.00
2023-05-10T14:51:04.620Z,55.91
2023-05-10T14:54:06.838Z,55.92
2023-05-10T14:57:08.958Z,55.89
2023-05-10T15:00:12.269Z,55.86
2023-05-10T15:03:14.731Z,55.40
2023-05-10T15:06:17.348Z,55.90
2023-05-10T15:09:19.388Z,55.89
2023-05-10T15:12:21.590Z,55.98
2023-05-10T15:15:23.646Z,56.08
2023-05-10T15:18:25.775Z,56.00
2023-05-10T15:21:28.506Z,56.15
2023-05-10T15:24:30.616Z,53.88
2023-05-10T15:27:32.842Z,54.04
2023-05-10T15:30:34.873Z,53.75
2023-05-10T15:33:39.172Z,53.76
2023-05-10T15:36:41.213Z,53.88
2023-05-10T15:39:43.218Z,55.41
2023-05-10T15:42:45.404Z,54.59
2023-05-10T15:45:47.783Z,54.20
2023-05-10T15:48:49.823Z,53.93
2023-05-10T15:51:51.832Z,54.03
2023-05-10T15:54:53.989Z,52.20
2023-05-10T15:57:56.057Z,52.09
2023-05-10T16:00:58.297Z,51.33
2023-05-10T16:04:00.878Z,51.50
2023-05-10T16:07:03.132Z,51.10
2023-05-10T16:10:06.571Z,51.40
2023-05-10T16:13:08.717Z,51.61
2023-05-10T16:16:11.099Z,52.14
2023-05-10T16:19:13.276Z,52.47
2023-05-10T16:22:15.414Z,52.78
2023-05-10T16:25:17.756Z,53.17
2023-05-10T16:28:21.352Z,53.56
2023-05-10T16:31:23.510Z,53.84
2023-05-10T16:34:25.835Z,53.78
2023-05-10T16:37:28.449Z,53.84
2023-05-10T16:40:30.918Z,53.83
2023-05-10T16:43:33.300Z,54.12
2023-05-10T16:46:35.441Z,54.05
2023-05-10T16:49:37.541Z,54.24
2023-05-10T16:52:39.622Z,54.54
2023-05-10T16:55:41.811Z,54.69
2023-05-10T16:58:43.923Z,54.90
2023-05-10T17:01:46.971Z,55.00
2023-05-10T17:04:49.361Z,55.15
2023-05-10T17:07:51.317Z,55.31
2023-05-10T17:10:53.369Z,55.37
2023-05-10T17:13:55.432Z,55.58
2023-05-10T17:16:57.542Z,55.52
2023-05-10T17:19:59.707Z,55.61
2023-05-10T17:23:03.174Z,55.68
2023-05-10T17:26:06.319Z,55.76
2023-05-10T17:29:08.605Z,55.83
2023-05-10T17:32:10.710Z,56.02
2023-05-10T17:35:12.774Z,55.97
2023-05-10T17:38:14.780Z,56.00
2023-05-10T17:41:17.481Z,56.12
2023-05-10T17:44:19.744Z,56.47
2023-05-10T17:47:21.966Z,56.13
2023-05-10T17:50:23.986Z,56.35
2023-05-10T17:53:26.041Z,56.29
2023-05-10T17:56:28.767Z,56.50
2023-05-10T17:59:30.854Z,56.54
2023-05-10T18:02:33.136Z,56.70
2023-05-10T18:05:39.131Z,56.64
2023-05-10T18:08:41.581Z,56.75
2023-05-10T18:11:43.580Z,56.81
2023-05-10T18:14:45.594Z,56.81
2023-05-10T18:17:49.161Z,56.93
2023-05-10T18:20:56.424Z,56.97
2023-05-10T18:23:58.448Z,56.99
2023-05-10T18:27:00.860Z,56.96
2023-05-10T18:30:02.999Z,56.91
2023-05-10T18:33:05.109Z,56.98
2023-05-10T18:36:07.409Z,57.07
2023-05-10T18:39:10.764Z,57.12
2023-05-10T18:42:12.875Z,57.09
2023-05-10T18:45:15.214Z,57.12
2023-05-10T18:48:17.403Z,57.13
2023-05-10T18:51:20.273Z,57.13
2023-05-10T18:54:22.618Z,57.18
2023-05-10T18:57:24.714Z,57.21
2023-05-10T19:00:26.827Z,57.28
2023-05-10T19:03:29.908Z,57.31
2023-05-10T19:06:33.716Z,57.29
2023-05-10T19:09:35.967Z,57.33
2023-05-10T19:12:38.045Z,57.31
2023-05-10T19:15:40.842Z,57.37
2023-05-10T19:18:45.204Z,57.42
2023-05-10T19:21:48.214Z,57.48
2023-05-10T19:24:50.480Z,57.57
2023-05-10T19:27:53.434Z,57.63
2023-05-10T19:30:55.505Z,57.63
2023-05-10T19:34:00.505Z,57.73
2023-05-10T19:37:02.823Z,57.73
2023-05-10T19:40:05.666Z,57.77
2023-05-10T19:43:07.901Z,57.85
2023-05-10T19:46:10.094Z,57.80
2023-05-10T19:49:12.104Z,57.88
2023-05-10T19:52:14.232Z,57.88
2023-05-10T19:55:29.763Z,57.83
2023-05-10T19:58:32.443Z,58.00
2023-05-10T20:01:34.541Z,57.92
2023-05-10T20:04:36.597Z,57.96
2023-05-10T20:07:38.716Z,58.09
2023-05-10T20:10:40.757Z,58.00
2023-05-10T20:13:42.827Z,58.06
2023-05-10T20:16:45.100Z,58.09
2023-05-10T20:19:47.170Z,58.12
2023-05-10T20:22:49.591Z,58.21
2023-05-10T20:25:51.795Z,58.15
2023-05-10T20:28:53.974Z,58.24
2023-05-10T20:31:56.486Z,58.31
2023-05-10T20:34:58.610Z,58.24
2023-05-10T20:38:02.021Z,58.24
2023-05-10T20:41:04.120Z,58.27
2023-05-10T20:44:06.395Z,58.32
2023-05-10T20:47:08.527Z,58.40
2023-05-10T20:50:11.621Z,58.38
2023-05-10T20:53:14.722Z,58.41
2023-05-10T20:56:17.006Z,58.36
2023-05-10T20:59:19.320Z,58.29
2023-05-10T21:02:21.430Z,58.28
2023-05-10T21:05:23.812Z,58.19
2023-05-10T21:08:25.972Z,58.32
2023-05-10T21:11:28.001Z,58.38
2023-05-10T21:14:31.004Z,58.57
2023-05-10T21:17:33.191Z,58.54
2023-05-10T21:20:35.269Z,58.52
2023-05-10T21:23:37.454Z,58.47
2023-05-10T21:26:39.609Z,58.54
2023-05-10T21:29:42.028Z,58.52
2023-05-10T21:32:44.332Z,58.58
2023-05-10T21:35:46.414Z,58.61
2023-05-10T21:38:50.324Z,58.60
2023-05-10T21:41:52.485Z,58.54
2023-05-10T21:44:54.580Z,58.61
2023-05-10T21:47:56.651Z,58.63
2023-05-10T21:50:59.162Z,58.57
2023-05-10T21:54:01.592Z,58.57
2023-05-10T21:57:03.632Z,58.57
2023-05-10T22:00:06.837Z,58.61
2023-05-10T22:03:08.927Z,58.57
2023-05-10T22:06:11.064Z,58.61
2023-05-10T22:09:13.115Z,58.58
2023-05-10T22:12:15.306Z,58.61
2023-05-10T22:15:17.372Z,58.64
2023-05-10T22:18:19.438Z,58.54
2023-05-10T22:21:21.656Z,58.58
2023-05-10T22:24:23.681Z,58.55
2023-05-10T22:27:25.751Z,58.55
2023-05-10T22:30:27.886Z,58.56
2023-05-10T22:33:29.938Z,58.54
2023-05-10T22:36:32.337Z,58.58
2023-05-10T22:39:34.670Z,58.57
2023-05-10T22:42:36.671Z,58.49
2023-05-10T22:45:38.689Z,58.52
2023-05-10T22:48:42.034Z,58.45
2023-05-10T22:51:44.037Z,58.52
2023-05-10T22:54:46.238Z,58.51
2023-05-10T22:57:48.265Z,58.46
2023-05-10T23:00:50.423Z,58.48
2023-05-10T23:03:52.472Z,58.45
2023-05-10T23:06:54.570Z,58.44
2023-05-10T23:09:56.794Z,58.38
2023-05-10T23:12:58.848Z,58.42
2023-05-10T23:16:06.410Z,58.38
2023-05-10T23:19:08.513Z,58.41
2023-05-10T23:22:10.530Z,58.36
2023-05-10T23:25:12.513Z,58.38
2023-05-10T23:28:14.597Z,58.33
2023-05-10T23:31:16.740Z,58.35
2023-05-10T23:34:18.740Z,58.31
2023-05-10T23:37:21.132Z,58.32
2023-05-10T23:40:23.177Z,58.31
2023-05-10T23:43:25.411Z,58.35
2023-05-10T23:46:27.650Z,58.36
2023-05-10T23:49:30.040Z,58.39
2023-05-10T23:52:32.161Z,58.40
2023-05-10T23:55:34.161Z,58.38
2023-05-10T23:58:36.321Z,58.38
